ADDS METAR Data INFO
IDs: Format: Raw Decoded Include TAF

Data at: 0742 UTC 21 Jul 2018

PAGS 210656Z AUTO 10003KT 10SM CLR 12/10 A3030 RMK AO2 SLP259 T01170100
PAGS 210556Z AUTO 19003KT 10SM CLR 12/11 A3029 RMK AO2 SLP257 T01220106 10194 20122 51010
PAGS 210456Z AUTO 21003KT 10SM CLR 14/11 A3028 RMK AO2 SLP254 T01390106
PAGS 210356Z AUTO 20004KT 10SM CLR 16/11 A3027 RMK AO2 SLP249 T01610106
PAGS 210256Z AUTO 24005KT 10SM CLR 17/11 A3026 RMK AO2 SLP246 T01720106 55004
PAGS 210156Z AUTO 23008KT 10SM CLR 18/11 A3025 RMK AO2 SLP245 T01830111
PAGS 210056Z AUTO 24007KT 10SM CLR 19/11 A3026 RMK AO2 SLP248 T01890106
PAGS 202356Z AUTO 24007KT 10SM CLR 19/11 A3027 RMK AO2 SLP250 T01940111 10194 20150 58004
PAGS 202256Z AUTO 24007KT 10SM CLR 19/11 A3027 RMK AO2 SLP252 T01890111
PAGS 202156Z AUTO 20008KT 10SM CLR 18/11 A3028 RMK AO2 SLP253 T01830111
PAGS 202056Z AUTO 21010KT 10SM CLR 17/11 A3028 RMK AO2 SLP254 T01720111 58006
PAGS 202040Z AUTO 20009KT 10SM SCT026 17/11 A3028 RMK AO2
PAGS 201956Z AUTO 21007KT 10SM OVC024 16/11 A3029 RMK AO2 SLP256 T01610111
PAGS 201856Z AUTO 20006KT 10SM OVC022 16/11 A3029 RMK AO2 SLP259 T01560111
PAGS 201756Z AUTO VRB04KT 10SM OVC020 15/11 A3030 RMK AO2 SLP260 T01500111 10150 20083 55001
PAGS 201716Z AUTO 24005KT 10SM BKN018 14/11 A3030 RMK AO2
PAGS 201656Z AUTO 00000KT 10SM FEW014 14/11 A3029 RMK AO2 SLP259 T01440106
PAGS 201620Z AUTO 00000KT 10SM SCT026 14/11 A3030 RMK AO2
PAGS 201556Z AUTO 00000KT 10SM BKN024 13/11 A3030 RMK AO2 SLP262 T01280106
PAGS 201504Z AUTO 00000KT 10SM BKN024 12/10 A3030 RMK AO2
PAGS 201456Z AUTO 00000KT 10SM SCT024 11/10 A3030 RMK AO2 SLP261 T01110100 53003
PAGS 201356Z AUTO 00000KT 10SM CLR 09/08 A3030 RMK AO2 SLP260 T00890083
PAGS 201256Z AUTO 00000KT 10SM CLR 08/08 A3029 RMK AO2 SLP259 T00830083
PAGS 201156Z AUTO 00000KT 10SM OVC031 10/09 A3029 RMK AO2 SLP258 T01000094 10128 20100 53001
PAGS 201056Z AUTO 00000KT 10SM OVC033 11/09 A3029 RMK AO2 SLP257 T01060094
PAGS 200956Z AUTO 00000KT 10SM BKN031 11/10 A3029 RMK AO2 SLP256 T01110100
PAGS 200947Z AUTO 12003KT 10SM OVC031 11/10 A3029 RMK AO2
PAGS 200909Z AUTO 00000KT 10SM OVC029 12/10 A3029 RMK AO2
PAGS 200856Z AUTO 00000KT 10SM OVC031 12/10 A3029 RMK AO2 SLP257 T01170100 401780111 51005
PAGS 200756Z AUTO 00000KT 10SM BKN033 12/10 A3029 RMK AO2 SLP256 T01170100
PAGS 200656Z AUTO 00000KT 10SM OVC035 12/10 A3028 RMK AO2 SLP254 T01220100
PAGS 200556Z AUTO 00000KT 10SM BKN039 13/10 A3028 RMK AO2 SLP252 T01280100 10178 20128 53007
PAGS 200456Z AUTO 00000KT 10SM CLR 14/10 A3027 RMK AO2 SLP250 T01390100
PAGS 200356Z AUTO 25005KT 10SM CLR 14/10 A3026 RMK AO2 SLP246 T01440100
PAGS 200256Z AUTO 23008KT 10SM BKN038 16/10 A3025 RMK AO2 SLP246 T01560100 53003
PAGS 200156Z AUTO 22011G16KT 10SM OVC038 16/10 A3024 RMK AO2 SLP242 T01610100
PAGS 200056Z AUTO 23011KT 10SM BKN038 17/11 A3025 RMK AO2 SLP243 T01720106
PAGS 192356Z AUTO 22011KT 10SM OVC036 18/11 A3025 RMK AO2 SLP242 T01780106 10178 20133 56002
PAGS 192256Z AUTO 23011KT 10SM OVC034 17/10 A3025 RMK AO2 SLP243 T01720100
PAGS 192156Z AUTO VRB05KT 10SM FEW030 OVC037 17/11 A3025 RMK AO2 SLP243 T01670111
PAGS 192127Z AUTO 18008KT 10SM FEW021 OVC039 16/11 A3025 RMK AO2
PAGS 192056Z AUTO 23008KT 10SM BKN021 OVC041 17/12 A3025 RMK AO2 SLP244 T01670117 58005
PAGS 191956Z AUTO 26003KT 10SM FEW021 OVC035 14/12 A3026 RMK AO2 SLP247 T01440117